createdAt,value
2022-12-24T00:00:44.609Z,11.99
2022-12-24T00:03:12.578Z,11.99
2022-12-24T00:05:40.468Z,11.98
2022-12-24T00:08:08.455Z,11.97
2022-12-24T00:10:36.363Z,11.99
2022-12-24T00:13:05.906Z,11.99
2022-12-24T00:15:33.776Z,12.03
2022-12-24T00:18:01.663Z,12.03
2022-12-24T00:20:29.908Z,12.06
2022-12-24T00:22:58.202Z,12.06
2022-12-24T00:25:26.066Z,12.08
2022-12-24T00:27:53.933Z,12.05
2022-12-24T00:30:23.382Z,12.06
2022-12-24T00:32:51.321Z,12.06
2022-12-24T00:35:19.237Z,12.07
2022-12-24T00:37:48.847Z,12.06
2022-12-24T00:40:16.988Z,12.09
2022-12-24T00:42:45.207Z,12.07
2022-12-24T00:45:14.137Z,12.04
2022-12-24T00:47:44.088Z,12.04
2022-12-24T00:50:12.155Z,12.04
2022-12-24T00:52:40.113Z,12.00
2022-12-24T00:55:09.262Z,11.99
2022-12-24T00:57:37.251Z,11.98
2022-12-24T01:00:06.782Z,11.95
2022-12-24T01:02:34.792Z,11.92
2022-12-24T01:05:12.021Z,11.84
2022-12-24T01:07:42.199Z,11.85
2022-12-24T01:10:12.634Z,11.79
2022-12-24T01:12:40.864Z,11.77
2022-12-24T01:15:09.566Z,11.75
2022-12-24T01:17:37.674Z,11.72
2022-12-24T01:20:09.353Z,11.69
2022-12-24T01:22:37.538Z,11.65
2022-12-24T01:25:06.185Z,11.62
2022-12-24T01:27:34.095Z,11.59
2022-12-24T01:30:02.247Z,11.56
2022-12-24T01:32:30.565Z,11.54
2022-12-24T01:34:58.756Z,11.52
2022-12-24T01:37:28.300Z,11.49
2022-12-24T01:40:16.987Z,11.48
2022-12-24T01:43:05.922Z,11.45
2022-12-24T01:45:47.065Z,11.41
2022-12-24T01:48:23.340Z,11.39
2022-12-24T01:50:56.545Z,11.39
2022-12-24T01:53:26.047Z,11.38
2022-12-24T01:55:56.142Z,11.37
2022-12-24T01:58:26.170Z,11.36
2022-12-24T02:00:54.167Z,11.30
2022-12-24T02:03:22.612Z,11.32
2022-12-24T02:05:53.541Z,11.26
2022-12-24T02:08:21.692Z,11.26
2022-12-24T02:10:51.897Z,11.24
2022-12-24T02:13:22.472Z,11.23
2022-12-24T02:16:07.302Z,11.14
2022-12-24T02:18:42.270Z,11.20
2022-12-24T02:21:49.408Z,11.15
2022-12-24T02:24:55.642Z,11.16
2022-12-24T02:27:34.892Z,11.15
2022-12-24T02:30:15.547Z,11.15
2022-12-24T02:32:59.454Z,11.14
2022-12-24T02:35:35.959Z,11.17
2022-12-24T02:38:09.077Z,11.17
2022-12-24T02:40:41.915Z,11.18
2022-12-24T02:43:14.874Z,11.19
2022-12-24T02:45:47.440Z,11.19
2022-12-24T02:48:18.577Z,11.17
2022-12-24T02:51:02.537Z,11.14
2022-12-24T02:53:31.294Z,11.16
2022-12-24T02:56:16.957Z,11.11
2022-12-24T02:58:57.142Z,11.14
2022-12-24T03:01:39.722Z,11.12
2022-12-24T03:04:16.588Z,11.09
2022-12-24T03:06:51.523Z,11.11
2022-12-24T03:09:26.721Z,11.08
2022-12-24T03:12:00.672Z,11.05
2022-12-24T03:14:30.661Z,11.08
2022-12-24T03:17:00.621Z,11.08
2022-12-24T03:19:28.945Z,11.11
2022-12-24T03:21:59.326Z,11.11
2022-12-24T03:24:27.295Z,11.12
2022-12-24T03:26:55.257Z,11.14
2022-12-24T03:29:23.312Z,11.11
2022-12-24T03:31:54.492Z,11.15
2022-12-24T03:34:24.013Z,11.15
2022-12-24T03:36:52.499Z,11.15
2022-12-24T03:39:20.318Z,11.17
2022-12-24T03:41:48.347Z,11.16
2022-12-24T03:44:16.293Z,11.15
2022-12-24T03:46:44.247Z,11.16
2022-12-24T03:49:12.047Z,11.16
2022-12-24T03:51:41.417Z,11.17
2022-12-24T03:54:09.193Z,11.18
2022-12-24T03:56:37.037Z,11.18
2022-12-24T03:59:04.865Z,11.17
2022-12-24T04:01:32.791Z,11.16
2022-12-24T04:04:00.677Z,11.15
2022-12-24T04:06:28.567Z,11.14
2022-12-24T04:08:59.288Z,11.12
2022-12-24T04:11:27.075Z,11.11
2022-12-24T04:13:54.961Z,11.09
2022-12-24T04:16:22.869Z,11.08
2022-12-24T04:18:50.938Z,11.04
2022-12-24T04:21:18.852Z,11.08
2022-12-24T04:23:47.961Z,11.05
2022-12-24T04:26:17.757Z,11.07
2022-12-24T04:28:45.543Z,11.10
2022-12-24T04:31:16.107Z,11.10
2022-12-24T04:33:44.339Z,11.08
2022-12-24T04:36:16.936Z,11.12
2022-12-24T04:38:45.189Z,11.12
2022-12-24T04:41:23.785Z,11.14
2022-12-24T04:43:53.871Z,11.16
2022-12-24T04:46:23.900Z,11.15
2022-12-24T04:48:54.044Z,11.15
2022-12-24T04:51:22.288Z,11.17
2022-12-24T04:53:50.463Z,11.17
2022-12-24T04:56:22.531Z,11.18
2022-12-24T04:58:50.926Z,11.19
2022-12-24T05:01:20.698Z,11.20
2022-12-24T05:03:49.293Z,11.21
2022-12-24T05:06:20.699Z,11.22
2022-12-24T05:08:49.637Z,11.19
2022-12-24T05:11:19.797Z,11.22
2022-12-24T05:13:48.356Z,11.23
2022-12-24T05:16:18.817Z,11.24
2022-12-24T05:18:46.778Z,11.24
2022-12-24T05:21:17.873Z,11.24
2022-12-24T05:24:03.664Z,11.24
2022-12-24T05:26:37.476Z,11.21
2022-12-24T05:29:06.674Z,11.20
2022-12-24T05:31:36.045Z,11.20
2022-12-24T05:34:04.050Z,11.18
2022-12-24T05:36:31.987Z,11.19
2022-12-24T05:39:00.172Z,11.18
2022-12-24T05:41:28.120Z,11.18
2022-12-24T05:43:57.407Z,11.20
2022-12-24T05:46:26.683Z,11.19
2022-12-24T05:48:54.526Z,11.16
2022-12-24T05:51:24.101Z,11.20
2022-12-24T05:53:52.845Z,11.19
2022-12-24T05:56:22.840Z,11.20
2022-12-24T05:58:51.107Z,11.20
2022-12-24T06:01:20.830Z,11.18
2022-12-24T06:03:49.676Z,11.18
2022-12-24T06:06:21.127Z,11.17
2022-12-24T06:08:49.737Z,11.20
2022-12-24T06:11:19.756Z,11.24
2022-12-24T06:13:47.853Z,11.23
2022-12-24T06:16:18.538Z,11.28
2022-12-24T06:18:48.042Z,11.29
2022-12-24T06:21:16.719Z,11.30
2022-12-24T06:23:46.031Z,11.30
2022-12-24T06:26:15.652Z,11.35
2022-12-24T06:28:44.513Z,11.34
2022-12-24T06:31:15.775Z,11.36
2022-12-24T06:33:44.701Z,11.36
2022-12-24T06:36:18.161Z,11.38
2022-12-24T06:38:46.866Z,11.38
2022-12-24T06:41:15.142Z,11.39
2022-12-24T06:43:45.760Z,11.37
2022-12-24T06:46:13.834Z,11.36
2022-12-24T06:48:41.769Z,11.38
2022-12-24T06:51:09.666Z,11.42
2022-12-24T06:53:39.072Z,11.43
2022-12-24T06:56:08.467Z,11.42
2022-12-24T06:58:37.350Z,11.44
2022-12-24T07:01:08.502Z,11.40
2022-12-24T07:03:36.744Z,11.39
2022-12-24T07:06:04.793Z,11.39
2022-12-24T07:08:34.293Z,11.38
2022-12-24T07:11:03.648Z,11.35
2022-12-24T07:13:32.220Z,11.30
2022-12-24T07:16:00.616Z,11.27
2022-12-24T07:18:29.189Z,11.26
2022-12-24T07:20:57.326Z,11.21
2022-12-24T07:23:25.709Z,11.20
2022-12-24T07:25:53.574Z,11.18
2022-12-24T07:28:27.740Z,11.17
2022-12-24T07:30:56.289Z,11.14
2022-12-24T07:33:24.467Z,11.14
2022-12-24T07:36:00.323Z,11.11
2022-12-24T07:38:28.628Z,11.13
2022-12-24T07:40:57.268Z,11.13
2022-12-24T07:43:27.114Z,11.10
2022-12-24T07:45:56.798Z,11.09
2022-12-24T07:48:24.657Z,11.06
2022-12-24T07:50:52.806Z,11.06
2022-12-24T07:53:21.146Z,11.01
2022-12-24T07:55:48.941Z,11.00
2022-12-24T07:58:16.746Z,11.00
2022-12-24T08:00:46.023Z,11.00
2022-12-24T08:03:18.698Z,10.99
2022-12-24T08:05:47.156Z,10.98
2022-12-24T08:08:15.164Z,10.98
2022-12-24T08:10:44.030Z,10.98
2022-12-24T08:13:11.920Z,10.99
2022-12-24T08:15:40.171Z,11.00
2022-12-24T08:18:09.804Z,11.02
2022-12-24T08:20:39.463Z,11.03
2022-12-24T08:23:08.388Z,11.01
2022-12-24T08:25:36.950Z,11.03
2022-12-24T08:28:05.056Z,11.01
2022-12-24T08:30:32.975Z,11.02
2022-12-24T08:33:00.970Z,11.03
2022-12-24T08:35:30.339Z,11.05
2022-12-24T08:37:58.413Z,11.07
2022-12-24T08:40:26.473Z,11.08
2022-12-24T08:42:54.322Z,11.08
2022-12-24T08:45:22.621Z,11.09
2022-12-24T08:47:50.557Z,11.08
2022-12-24T08:50:18.576Z,11.08
2022-12-24T08:52:47.824Z,11.09
2022-12-24T08:55:15.635Z,11.08
2022-12-24T08:57:43.607Z,11.10
2022-12-24T09:00:14.542Z,11.07
2022-12-24T09:02:42.491Z,11.07
2022-12-24T09:05:10.986Z,11.03
2022-12-24T09:07:38.755Z,11.02
2022-12-24T09:10:09.913Z,11.05
2022-12-24T09:12:38.223Z,11.08
2022-12-24T09:15:08.332Z,11.08
2022-12-24T09:17:36.340Z,11.10
2022-12-24T09:20:04.984Z,11.15
2022-12-24T09:22:32.754Z,11.20
2022-12-24T09:25:00.522Z,11.25
2022-12-24T09:27:31.305Z,11.31
2022-12-24T09:29:59.164Z,11.37
2022-12-24T09:32:27.242Z,11.40
2022-12-24T09:34:55.147Z,11.47
2022-12-24T09:37:23.061Z,11.49
2022-12-24T09:39:50.894Z,11.53
2022-12-24T09:42:29.740Z,11.53
2022-12-24T09:45:04.533Z,11.60
2022-12-24T09:47:39.694Z,11.63
2022-12-24T09:50:25.781Z,11.67
2022-12-24T09:52:54.733Z,11.73
2022-12-24T09:55:28.395Z,11.78
2022-12-24T09:57:59.162Z,11.77
2022-12-24T10:00:30.558Z,11.77
2022-12-24T10:02:59.020Z,11.80
2022-12-24T10:05:38.962Z,11.81
2022-12-24T10:08:19.765Z,11.82
2022-12-24T10:10:55.349Z,11.81
2022-12-24T10:13:35.836Z,11.81
2022-12-24T10:16:17.802Z,11.82
2022-12-24T10:18:56.854Z,11.83
2022-12-24T10:21:33.707Z,11.85
2022-12-24T10:24:08.077Z,11.84
2022-12-24T10:26:54.073Z,11.82
2022-12-24T10:29:26.139Z,11.88
2022-12-24T10:32:00.473Z,11.92
2022-12-24T10:34:34.899Z,11.96
2022-12-24T10:37:04.558Z,12.02
2022-12-24T10:39:32.480Z,12.09
2022-12-24T10:42:02.655Z,12.14
2022-12-24T10:44:34.508Z,12.16
2022-12-24T10:47:06.650Z,12.18
2022-12-24T10:49:41.511Z,12.19
2022-12-24T10:52:13.879Z,12.20
2022-12-24T10:55:06.583Z,12.18
2022-12-24T10:57:35.983Z,12.22
2022-12-24T11:00:06.365Z,12.24
2022-12-24T11:02:37.847Z,12.23
2022-12-24T11:05:27.860Z,12.25
2022-12-24T11:08:02.285Z,12.24
2022-12-24T11:10:31.067Z,12.26
2022-12-24T11:13:27.652Z,12.30
2022-12-24T11:15:47.531Z,12.32
2022-12-24T11:18:17.180Z,12.32
2022-12-24T11:20:52.185Z,12.29
2022-12-24T11:23:20.619Z,12.32
2022-12-24T11:25:51.197Z,12.28
2022-12-24T11:28:23.305Z,12.28
2022-12-24T11:31:03.920Z,12.30
2022-12-24T11:33:46.133Z,12.34
2022-12-24T11:36:14.962Z,12.37
2022-12-24T11:38:42.860Z,12.35
2022-12-24T11:41:12.983Z,12.35
2022-12-24T11:43:46.294Z,12.38
2022-12-24T11:46:17.699Z,12.40
2022-12-24T11:48:47.973Z,12.44
2022-12-24T11:51:25.496Z,12.45
2022-12-24T11:54:05.338Z,12.46
2022-12-24T11:56:40.770Z,12.48
2022-12-24T11:59:20.039Z,12.50
2022-12-24T12:01:55.698Z,12.53
2022-12-24T12:04:29.045Z,12.57
2022-12-24T12:07:00.902Z,12.62
2022-12-24T12:09:32.544Z,12.65
2022-12-24T12:12:06.315Z,12.66
2022-12-24T12:14:39.344Z,12.65
2022-12-24T12:17:17.491Z,12.64
2022-12-24T12:19:50.547Z,12.64
2022-12-24T12:22:29.836Z,12.64
2022-12-24T12:25:01.101Z,12.71
2022-12-24T12:27:35.129Z,12.73
2022-12-24T12:30:04.814Z,12.77
2022-12-24T12:32:42.137Z,12.75
2022-12-24T12:35:22.127Z,12.77
2022-12-24T12:37:57.495Z,12.79
2022-12-24T12:40:44.001Z,12.80
2022-12-24T12:43:21.583Z,12.78
2022-12-24T12:45:56.299Z,12.79
2022-12-24T12:48:47.629Z,12.76
2022-12-24T12:51:25.670Z,12.76
2022-12-24T12:54:13.151Z,12.76
2022-12-24T12:56:47.060Z,12.76
2022-12-24T12:59:21.766Z,12.74
2022-12-24T13:01:58.283Z,12.77
2022-12-24T13:04:55.964Z,12.69
2022-12-24T13:07:52.114Z,12.73
2022-12-24T13:10:44.079Z,12.75
2022-12-24T13:13:31.815Z,12.76
2022-12-24T13:16:13.322Z,12.80
2022-12-24T13:19:00.237Z,12.79
2022-12-24T13:21:31.293Z,12.84
2022-12-24T13:24:19.813Z,12.78
2022-12-24T13:27:06.702Z,12.76
2022-12-24T13:29:52.820Z,12.81
2022-12-24T13:32:49.603Z,12.79
2022-12-24T13:35:59.108Z,12.76
2022-12-24T13:38:43.646Z,12.83
2022-12-24T13:41:50.444Z,12.84
2022-12-24T13:44:21.276Z,12.89
2022-12-24T13:46:52.233Z,12.92
2022-12-24T13:49:22.900Z,12.92
2022-12-24T13:51:51.107Z,12.92
2022-12-24T13:54:25.543Z,12.86
2022-12-24T13:56:55.103Z,12.87
2022-12-24T13:59:38.670Z,12.85
2022-12-24T14:02:19.606Z,12.85
2022-12-24T14:04:52.401Z,12.81
2022-12-24T14:07:21.679Z,12.81
2022-12-24T14:09:52.149Z,12.78
2022-12-24T14:12:51.699Z,12.68
2022-12-24T14:15:53.202Z,12.65
2022-12-24T14:18:23.620Z,12.68
2022-12-24T14:20:53.916Z,12.65
2022-12-24T14:23:32.787Z,12.59
2022-12-24T14:26:02.518Z,12.59
2022-12-24T14:28:39.486Z,12.54
2022-12-24T14:31:14.900Z,12.56
2022-12-24T14:33:43.254Z,12.56
2022-12-24T14:36:13.813Z,12.56
2022-12-24T14:38:43.595Z,12.59
2022-12-24T14:41:31.334Z,12.58
2022-12-24T14:44:09.624Z,12.57
2022-12-24T14:46:44.021Z,12.59
2022-12-24T14:49:24.106Z,12.58
2022-12-24T14:52:04.509Z,12.57
2022-12-24T14:54:38.911Z,12.58
2022-12-24T14:57:21.644Z,12.53
2022-12-24T14:59:53.307Z,12.54
2022-12-24T15:02:44.377Z,12.47
2022-12-24T15:05:16.349Z,12.48
2022-12-24T15:07:48.692Z,12.45
2022-12-24T15:10:27.258Z,12.35
2022-12-24T15:12:57.179Z,12.36
2022-12-24T15:15:26.463Z,12.33
2022-12-24T15:17:55.689Z,12.32
2022-12-24T15:20:26.973Z,12.31
2022-12-24T15:22:57.337Z,12.31
2022-12-24T15:25:28.103Z,12.30
2022-12-24T15:27:56.298Z,12.28
2022-12-24T15:30:28.899Z,12.25
2022-12-24T15:32:58.998Z,12.18
2022-12-24T15:35:55.895Z,12.08
2022-12-24T15:38:27.948Z,12.07
2022-12-24T15:40:56.314Z,12.01
2022-12-24T15:43:24.750Z,11.96
2022-12-24T15:45:54.572Z,11.93
2022-12-24T15:48:25.687Z,11.89
2022-12-24T15:50:56.630Z,11.83
2022-12-24T15:53:29.594Z,11.78
2022-12-24T15:56:03.731Z,11.73
2022-12-24T15:58:33.721Z,11.70
2022-12-24T16:01:23.301Z,11.63
2022-12-24T16:04:00.469Z,11.57
2022-12-24T16:06:29.480Z,11.54
2022-12-24T16:08:58.887Z,11.49
2022-12-24T16:11:34.631Z,11.47
2022-12-24T16:14:11.978Z,11.43
2022-12-24T16:16:43.993Z,11.38
2022-12-24T16:19:19.564Z,11.33
2022-12-24T16:21:51.408Z,11.30
2022-12-24T16:24:23.765Z,11.26
2022-12-24T16:26:51.956Z,11.22
2022-12-24T16:29:20.470Z,11.18
2022-12-24T16:31:52.937Z,11.13
2022-12-24T16:34:30.113Z,11.05
2022-12-24T16:36:59.234Z,11.04
2022-12-24T16:39:31.190Z,11.01
2022-12-24T16:42:18.429Z,10.98
2022-12-24T16:44:46.993Z,10.93
2022-12-24T16:47:24.998Z,10.87
2022-12-24T16:49:53.275Z,10.83
2022-12-24T16:52:23.426Z,10.80
2022-12-24T16:54:51.595Z,10.73
2022-12-24T16:57:20.193Z,10.70
2022-12-24T16:59:48.332Z,10.66
2022-12-24T17:02:19.991Z,10.61
2022-12-24T17:04:49.012Z,10.56
2022-12-24T17:07:19.801Z,10.53
2022-12-24T17:09:47.629Z,10.49
2022-12-24T17:12:15.979Z,10.45
2022-12-24T17:14:43.985Z,10.41
2022-12-24T17:17:23.807Z,10.35
2022-12-24T17:19:52.161Z,10.33
2022-12-24T17:22:20.300Z,10.27
2022-12-24T17:24:48.656Z,10.23
2022-12-24T17:27:16.896Z,10.19
2022-12-24T17:29:44.832Z,10.15
2022-12-24T17:32:12.652Z,10.08
2022-12-24T17:34:42.483Z,10.06
2022-12-24T17:37:10.468Z,10.04
2022-12-24T17:39:38.405Z,10.01
2022-12-24T17:42:06.487Z,9.98
2022-12-24T17:44:34.609Z,9.95
2022-12-24T17:47:05.122Z,9.90
2022-12-24T17:49:33.771Z,9.87
2022-12-24T17:52:04.797Z,9.84
2022-12-24T17:54:32.791Z,9.80
2022-12-24T17:57:00.643Z,9.77
2022-12-24T17:59:28.995Z,9.75
2022-12-24T18:01:57.036Z,9.70
2022-12-24T18:04:24.884Z,9.67
2022-12-24T18:06:57.842Z,9.62
2022-12-24T18:09:31.492Z,9.59
2022-12-24T18:11:59.366Z,9.53
2022-12-24T18:14:28.262Z,9.51
2022-12-24T18:16:56.058Z,9.47
2022-12-24T18:19:24.062Z,9.43
2022-12-24T18:21:52.115Z,9.42
2022-12-24T18:24:20.485Z,9.38
2022-12-24T18:26:49.902Z,9.35
2022-12-24T18:29:18.409Z,9.33
2022-12-24T18:31:46.321Z,9.32
2022-12-24T18:34:16.250Z,9.29
2022-12-24T18:36:46.239Z,9.27
2022-12-24T18:39:17.577Z,9.25
2022-12-24T18:41:45.405Z,9.23
2022-12-24T18:44:18.108Z,9.21
2022-12-24T18:46:48.945Z,9.19
2022-12-24T18:49:16.840Z,9.17
2022-12-24T18:51:44.682Z,9.15
2022-12-24T18:54:12.611Z,9.13
2022-12-24T18:56:40.496Z,9.10
2022-12-24T18:59:08.352Z,9.08
2022-12-24T19:01:37.736Z,9.07
2022-12-24T19:04:05.868Z,9.05
2022-12-24T19:06:33.800Z,9.04
2022-12-24T19:09:02.108Z,9.01
2022-12-24T19:11:32.509Z,9.00
2022-12-24T19:14:00.646Z,8.97
2022-12-24T19:16:28.949Z,8.94
2022-12-24T19:18:58.824Z,8.93
2022-12-24T19:21:26.935Z,8.88
2022-12-24T19:23:54.903Z,8.84
2022-12-24T19:26:23.393Z,8.81
2022-12-24T19:28:51.931Z,8.79
2022-12-24T19:31:22.408Z,8.79
2022-12-24T19:33:52.516Z,8.77
2022-12-24T19:36:25.718Z,8.75
2022-12-24T19:38:54.061Z,8.74
2022-12-24T19:41:25.423Z,8.73
2022-12-24T19:43:55.541Z,8.73
2022-12-24T19:46:25.426Z,8.72
2022-12-24T19:48:55.023Z,8.72
2022-12-24T19:51:25.841Z,8.71
2022-12-24T19:53:55.155Z,8.71
2022-12-24T19:56:24.640Z,8.71
2022-12-24T19:58:55.529Z,8.70
2022-12-24T20:01:25.707Z,8.69
2022-12-24T20:03:54.784Z,8.67
2022-12-24T20:06:27.569Z,8.70
2022-12-24T20:09:00.260Z,8.71
2022-12-24T20:11:29.527Z,8.73
2022-12-24T20:13:59.371Z,8.75
2022-12-24T20:16:27.972Z,8.77
2022-12-24T20:18:57.479Z,8.84
2022-12-24T20:21:27.612Z,8.88
2022-12-24T20:23:55.765Z,8.94
2022-12-24T20:26:26.758Z,8.98
2022-12-24T20:28:55.095Z,9.03
2022-12-24T20:31:24.786Z,9.07
2022-12-24T20:33:53.815Z,9.11
2022-12-24T20:36:23.468Z,9.15
2022-12-24T20:38:53.035Z,9.17
2022-12-24T20:41:23.878Z,9.17
2022-12-24T20:43:52.039Z,9.19
2022-12-24T20:46:22.246Z,9.19
2022-12-24T20:48:50.591Z,9.20
2022-12-24T20:51:24.296Z,9.20
2022-12-24T20:53:55.657Z,9.21
2022-12-24T20:56:23.972Z,9.22
2022-12-24T20:58:52.578Z,9.23
2022-12-24T21:01:24.799Z,9.24
2022-12-24T21:03:53.595Z,9.24
2022-12-24T21:06:21.988Z,9.26
2022-12-24T21:08:51.278Z,9.27
2022-12-24T21:11:38.776Z,9.27
2022-12-24T21:14:07.057Z,9.26
2022-12-24T21:16:36.197Z,9.27
2022-12-24T21:19:05.155Z,9.30
2022-12-24T21:21:34.724Z,9.32
2022-12-24T21:24:03.121Z,9.31
2022-12-24T21:26:32.395Z,9.34
2022-12-24T21:29:00.328Z,9.35
2022-12-24T21:31:28.601Z,9.36
2022-12-24T21:33:56.850Z,9.36
2022-12-24T21:36:25.326Z,9.38
2022-12-24T21:38:54.065Z,9.37
2022-12-24T21:41:24.013Z,9.37
2022-12-24T21:43:53.503Z,9.41
2022-12-24T21:46:25.076Z,9.40
2022-12-24T21:49:11.740Z,9.42
2022-12-24T21:51:40.127Z,9.41
2022-12-24T21:54:30.436Z,9.41
2022-12-24T21:57:17.232Z,9.45
2022-12-24T21:59:46.928Z,9.47
2022-12-24T22:02:16.409Z,9.52
2022-12-24T22:04:44.771Z,9.52
2022-12-24T22:07:39.331Z,9.50
2022-12-24T22:10:26.126Z,9.52
2022-12-24T22:12:54.600Z,9.52
2022-12-24T22:15:24.015Z,9.51
2022-12-24T22:17:52.053Z,9.51
2022-12-24T22:20:20.001Z,9.50
2022-12-24T22:22:48.548Z,9.51
2022-12-24T22:25:16.737Z,9.48
2022-12-24T22:27:44.707Z,9.53
2022-12-24T22:30:13.269Z,9.52
2022-12-24T22:32:42.545Z,9.54
2022-12-24T22:35:10.714Z,9.55
2022-12-24T22:37:38.727Z,9.54
2022-12-24T22:40:07.836Z,9.53
2022-12-24T22:42:35.791Z,9.55
2022-12-24T22:45:03.660Z,9.56
2022-12-24T22:47:31.893Z,9.58
2022-12-24T22:50:02.127Z,9.59
2022-12-24T22:52:33.866Z,9.62
2022-12-24T22:55:02.395Z,9.62
2022-12-24T22:57:30.485Z,9.61
2022-12-24T22:59:58.393Z,9.60
2022-12-24T23:02:28.671Z,9.58
2022-12-24T23:04:57.691Z,9.57
2022-12-24T23:07:26.840Z,9.54
2022-12-24T23:09:54.719Z,9.53
2022-12-24T23:12:42.602Z,9.51
2022-12-24T23:15:10.349Z,9.48
2022-12-24T23:17:38.220Z,9.46
2022-12-24T23:20:09.320Z,9.46
2022-12-24T23:22:38.867Z,9.45
2022-12-24T23:25:07.179Z,9.45
2022-12-24T23:27:35.110Z,9.45
2022-12-24T23:30:03.233Z,9.43
2022-12-24T23:32:31.138Z,9.43
2022-12-24T23:34:58.987Z,9.40
2022-12-24T23:37:34.586Z,9.38
2022-12-24T23:40:05.244Z,9.37
2022-12-24T23:42:33.251Z,9.35
2022-12-24T23:45:00.984Z,9.36
2022-12-24T23:47:28.830Z,9.36
2022-12-24T23:49:56.872Z,9.35
2022-12-24T23:52:24.770Z,9.35
2022-12-24T23:54:52.647Z,9.36
2022-12-24T23:57:21.829Z,9.36
2022-12-24T23:59:49.751Z,9.36
